sensor_id;sensor_type;location;lat;lon;timestamp;P1;durP1;ratioP1;P2;durP2;ratioP2
77226;SDS011;66234;47.642;19.144;2024-02-21T00:01:56;4.03;;;2.40;;
77226;SDS011;66234;47.642;19.144;2024-02-21T00:04:58;4.60;;;2.30;;
77226;SDS011;66234;47.642;19.144;2024-02-21T00:08:01;3.00;;;1.20;;
77226;SDS011;66234;47.642;19.144;2024-02-21T00:11:05;2.88;;;1.42;;
77226;SDS011;66234;47.642;19.144;2024-02-21T00:14:08;2.55;;;1.10;;
77226;SDS011;66234;47.642;19.144;2024-02-21T00:17:10;2.03;;;1.50;;
77226;SDS011;66234;47.642;19.144;2024-02-21T00:20:13;2.63;;;1.27;;
77226;SDS011;66234;47.642;19.144;2024-02-21T00:23:15;2.47;;;1.02;;
77226;SDS011;66234;47.642;19.144;2024-02-21T00:26:18;2.75;;;1.17;;
77226;SDS011;66234;47.642;19.144;2024-02-21T00:29:21;2.90;;;1.00;;
77226;SDS011;66234;47.642;19.144;2024-02-21T00:32:23;4.33;;;1.30;;
77226;SDS011;66234;47.642;19.144;2024-02-21T00:35:26;3.10;;;1.35;;
77226;SDS011;66234;47.642;19.144;2024-02-21T00:38:28;3.65;;;1.48;;
77226;SDS011;66234;47.642;19.144;2024-02-21T00:41:31;2.25;;;1.17;;
77226;SDS011;66234;47.642;19.144;2024-02-21T00:44:34;1.75;;;1.00;;
77226;SDS011;66234;47.642;19.144;2024-02-21T00:47:36;2.57;;;1.37;;
77226;SDS011;66234;47.642;19.144;2024-02-21T00:50:39;2.63;;;1.33;;
77226;SDS011;66234;47.642;19.144;2024-02-21T00:53:42;1.80;;;1.38;;
77226;SDS011;66234;47.642;19.144;2024-02-21T00:56:45;3.13;;;1.23;;
77226;SDS011;66234;47.642;19.144;2024-02-21T00:59:47;3.08;;;1.40;;
77226;SDS011;66234;47.642;19.144;2024-02-21T01:02:50;2.17;;;1.03;;
77226;SDS011;66234;47.642;19.144;2024-02-21T01:05:55;2.25;;;0.55;;
77226;SDS011;66234;47.642;19.144;2024-02-21T01:08:57;3.42;;;0.95;;
77226;SDS011;66234;47.642;19.144;2024-02-21T01:12:00;1.30;;;0.40;;
77226;SDS011;66234;47.642;19.144;2024-02-21T01:15:03;4.88;;;1.55;;
77226;SDS011;66234;47.642;19.144;2024-02-21T01:18:06;1.73;;;0.70;;
77226;SDS011;66234;47.642;19.144;2024-02-21T01:21:09;1.95;;;1.02;;
77226;SDS011;66234;47.642;19.144;2024-02-21T01:24:12;2.50;;;1.17;;
77226;SDS011;66234;47.642;19.144;2024-02-21T01:27:15;2.58;;;1.23;;
77226;SDS011;66234;47.642;19.144;2024-02-21T01:30:17;1.73;;;0.70;;
77226;SDS011;66234;47.642;19.144;2024-02-21T01:33:20;2.60;;;1.00;;
77226;SDS011;66234;47.642;19.144;2024-02-21T01:36:22;3.15;;;1.27;;
77226;SDS011;66234;47.642;19.144;2024-02-21T01:39:25;3.85;;;1.63;;
77226;SDS011;66234;47.642;19.144;2024-02-21T01:42:28;2.38;;;1.25;;
77226;SDS011;66234;47.642;19.144;2024-02-21T01:45:30;2.97;;;1.73;;
77226;SDS011;66234;47.642;19.144;2024-02-21T01:48:33;5.30;;;1.37;;
77226;SDS011;66234;47.642;19.144;2024-02-21T01:51:35;3.08;;;1.60;;
77226;SDS011;66234;47.642;19.144;2024-02-21T01:54:39;2.03;;;0.93;;
77226;SDS011;66234;47.642;19.144;2024-02-21T01:57:42;4.60;;;1.35;;
77226;SDS011;66234;47.642;19.144;2024-02-21T02:00:49;6.45;;;1.63;;
77226;SDS011;66234;47.642;19.144;2024-02-21T02:03:53;3.97;;;1.47;;
77226;SDS011;66234;47.642;19.144;2024-02-21T02:06:57;2.33;;;1.08;;
77226;SDS011;66234;47.642;19.144;2024-02-21T02:10:04;2.40;;;1.35;;
77226;SDS011;66234;47.642;19.144;2024-02-21T02:13:08;3.97;;;1.73;;
77226;SDS011;66234;47.642;19.144;2024-02-21T02:16:12;4.30;;;1.75;;
77226;SDS011;66234;47.642;19.144;2024-02-21T02:19:15;3.40;;;1.60;;
77226;SDS011;66234;47.642;19.144;2024-02-21T02:22:21;5.53;;;1.20;;
77226;SDS011;66234;47.642;19.144;2024-02-21T02:25:27;1.65;;;0.85;;
77226;SDS011;66234;47.642;19.144;2024-02-21T02:28:29;3.35;;;1.38;;
77226;SDS011;66234;47.642;19.144;2024-02-21T02:31:32;5.20;;;1.50;;
77226;SDS011;66234;47.642;19.144;2024-02-21T02:34:35;2.37;;;1.00;;
77226;SDS011;66234;47.642;19.144;2024-02-21T02:37:38;4.50;;;1.77;;
77226;SDS011;66234;47.642;19.144;2024-02-21T02:40:41;5.88;;;1.70;;
77226;SDS011;66234;47.642;19.144;2024-02-21T02:43:44;4.50;;;1.27;;
77226;SDS011;66234;47.642;19.144;2024-02-21T02:46:47;1.52;;;0.77;;
77226;SDS011;66234;47.642;19.144;2024-02-21T02:49:49;0.90;;;0.53;;
77226;SDS011;66234;47.642;19.144;2024-02-21T02:52:53;2.25;;;0.90;;
77226;SDS011;66234;47.642;19.144;2024-02-21T02:55:57;3.95;;;1.40;;
77226;SDS011;66234;47.642;19.144;2024-02-21T02:58:59;4.25;;;1.45;;
77226;SDS011;66234;47.642;19.144;2024-02-21T03:02:02;2.75;;;0.85;;
77226;SDS011;66234;47.642;19.144;2024-02-21T03:05:11;1.67;;;1.00;;
77226;SDS011;66234;47.642;19.144;2024-02-21T03:08:24;3.25;;;1.05;;
77226;SDS011;66234;47.642;19.144;2024-02-21T03:11:27;4.65;;;1.05;;
77226;SDS011;66234;47.642;19.144;2024-02-21T03:14:32;1.02;;;0.55;;
77226;SDS011;66234;47.642;19.144;2024-02-21T03:17:35;2.33;;;1.20;;
77226;SDS011;66234;47.642;19.144;2024-02-21T03:20:37;2.23;;;0.70;;
77226;SDS011;66234;47.642;19.144;2024-02-21T03:23:40;4.35;;;1.25;;
77226;SDS011;66234;47.642;19.144;2024-02-21T03:26:42;2.60;;;0.70;;
77226;SDS011;66234;47.642;19.144;2024-02-21T03:29:45;3.17;;;1.48;;
77226;SDS011;66234;47.642;19.144;2024-02-21T03:32:47;5.57;;;1.30;;
77226;SDS011;66234;47.642;19.144;2024-02-21T03:35:50;6.87;;;1.30;;
77226;SDS011;66234;47.642;19.144;2024-02-21T03:38:54;5.70;;;1.95;;
77226;SDS011;66234;47.642;19.144;2024-02-21T03:41:57;4.07;;;1.52;;
77226;SDS011;66234;47.642;19.144;2024-02-21T03:45:02;5.10;;;2.03;;
77226;SDS011;66234;47.642;19.144;2024-02-21T03:48:06;1.85;;;1.08;;
77226;SDS011;66234;47.642;19.144;2024-02-21T03:51:08;3.17;;;1.53;;
77226;SDS011;66234;47.642;19.144;2024-02-21T03:54:11;4.00;;;1.35;;
77226;SDS011;66234;47.642;19.144;2024-02-21T03:57:14;5.80;;;1.67;;
77226;SDS011;66234;47.642;19.144;2024-02-21T04:00:16;5.43;;;1.75;;
77226;SDS011;66234;47.642;19.144;2024-02-21T04:03:20;4.13;;;0.98;;
77226;SDS011;66234;47.642;19.144;2024-02-21T04:06:22;5.57;;;2.27;;
77226;SDS011;66234;47.642;19.144;2024-02-21T04:09:25;2.03;;;1.10;;
77226;SDS011;66234;47.642;19.144;2024-02-21T04:12:27;2.40;;;1.05;;
77226;SDS011;66234;47.642;19.144;2024-02-21T04:15:30;6.82;;;1.33;;
77226;SDS011;66234;47.642;19.144;2024-02-21T04:18:32;4.30;;;1.65;;
77226;SDS011;66234;47.642;19.144;2024-02-21T04:21:35;3.30;;;1.73;;
77226;SDS011;66234;47.642;19.144;2024-02-21T04:24:38;3.30;;;1.00;;
77226;SDS011;66234;47.642;19.144;2024-02-21T04:27:40;4.22;;;1.20;;
77226;SDS011;66234;47.642;19.144;2024-02-21T04:30:44;1.58;;;0.80;;
77226;SDS011;66234;47.642;19.144;2024-02-21T04:33:46;4.15;;;1.65;;
77226;SDS011;66234;47.642;19.144;2024-02-21T04:36:49;3.70;;;1.50;;
77226;SDS011;66234;47.642;19.144;2024-02-21T04:39:51;9.07;;;1.52;;
77226;SDS011;66234;47.642;19.144;2024-02-21T04:42:54;3.58;;;1.60;;
77226;SDS011;66234;47.642;19.144;2024-02-21T04:45:56;5.38;;;1.40;;
77226;SDS011;66234;47.642;19.144;2024-02-21T04:48:59;3.75;;;1.58;;
77226;SDS011;66234;47.642;19.144;2024-02-21T04:52:01;5.47;;;1.70;;
77226;SDS011;66234;47.642;19.144;2024-02-21T04:55:04;3.42;;;1.40;;
77226;SDS011;66234;47.642;19.144;2024-02-21T04:58:07;3.83;;;1.40;;
77226;SDS011;66234;47.642;19.144;2024-02-21T05:01:10;8.70;;;1.48;;
77226;SDS011;66234;47.642;19.144;2024-02-21T05:04:12;6.45;;;1.70;;
77226;SDS011;66234;47.642;19.144;2024-02-21T05:07:15;5.57;;;2.00;;
77226;SDS011;66234;47.642;19.144;2024-02-21T05:10:18;3.83;;;1.85;;
77226;SDS011;66234;47.642;19.144;2024-02-21T05:13:21;3.78;;;1.63;;
77226;SDS011;66234;47.642;19.144;2024-02-21T05:16:24;2.70;;;1.45;;
77226;SDS011;66234;47.642;19.144;2024-02-21T05:19:26;8.88;;;2.22;;
77226;SDS011;66234;47.642;19.144;2024-02-21T05:22:29;8.17;;;2.07;;
77226;SDS011;66234;47.642;19.144;2024-02-21T05:25:32;5.75;;;1.85;;
77226;SDS011;66234;47.642;19.144;2024-02-21T05:28:34;4.38;;;2.38;;
77226;SDS011;66234;47.642;19.144;2024-02-21T05:34:59;11.48;;;2.63;;
77226;SDS011;66234;47.642;19.144;2024-02-21T05:38:02;7.40;;;2.47;;
77226;SDS011;66234;47.642;19.144;2024-02-21T05:41:09;8.32;;;2.53;;
77226;SDS011;66234;47.642;19.144;2024-02-21T05:44:13;5.85;;;2.40;;
77226;SDS011;66234;47.642;19.144;2024-02-21T05:47:17;4.13;;;2.10;;
77226;SDS011;66234;47.642;19.144;2024-02-21T05:50:22;4.68;;;2.70;;
77226;SDS011;66234;47.642;19.144;2024-02-21T05:53:25;6.23;;;2.83;;
77226;SDS011;66234;47.642;19.144;2024-02-21T05:56:28;6.93;;;2.70;;
77226;SDS011;66234;47.642;19.144;2024-02-21T05:59:30;8.48;;;3.30;;
77226;SDS011;66234;47.642;19.144;2024-02-21T06:02:33;9.13;;;4.15;;
77226;SDS011;66234;47.642;19.144;2024-02-21T06:05:36;10.05;;;4.30;;
77226;SDS011;66234;47.642;19.144;2024-02-21T06:08:40;8.20;;;3.70;;
77226;SDS011;66234;47.642;19.144;2024-02-21T06:11:43;11.27;;;3.25;;
77226;SDS011;66234;47.642;19.144;2024-02-21T06:14:48;7.38;;;3.33;;
77226;SDS011;66234;47.642;19.144;2024-02-21T06:17:50;10.88;;;4.10;;
77226;SDS011;66234;47.642;19.144;2024-02-21T06:20:53;8.57;;;3.10;;
77226;SDS011;66234;47.642;19.144;2024-02-21T06:23:55;7.13;;;3.87;;
77226;SDS011;66234;47.642;19.144;2024-02-21T06:26:58;9.27;;;3.65;;
77226;SDS011;66234;47.642;19.144;2024-02-21T06:30:01;7.45;;;3.60;;
77226;SDS011;66234;47.642;19.144;2024-02-21T06:33:05;6.82;;;3.05;;
77226;SDS011;66234;47.642;19.144;2024-02-21T06:36:08;7.13;;;3.43;;
77226;SDS011;66234;47.642;19.144;2024-02-21T06:39:11;5.40;;;3.20;;
77226;SDS011;66234;47.642;19.144;2024-02-21T06:42:14;8.55;;;3.30;;
77226;SDS011;66234;47.642;19.144;2024-02-21T06:45:16;6.28;;;3.15;;
77226;SDS011;66234;47.642;19.144;2024-02-21T06:48:19;7.35;;;3.28;;
77226;SDS011;66234;47.642;19.144;2024-02-21T06:51:22;6.10;;;3.10;;
77226;SDS011;66234;47.642;19.144;2024-02-21T06:54:25;11.23;;;3.43;;
77226;SDS011;66234;47.642;19.144;2024-02-21T06:57:30;8.98;;;3.08;;
77226;SDS011;66234;47.642;19.144;2024-02-21T07:00:33;6.95;;;2.75;;
77226;SDS011;66234;47.642;19.144;2024-02-21T07:03:36;8.82;;;2.85;;
77226;SDS011;66234;47.642;19.144;2024-02-21T07:06:38;7.73;;;2.40;;
77226;SDS011;66234;47.642;19.144;2024-02-21T07:09:41;7.20;;;2.90;;
77226;SDS011;66234;47.642;19.144;2024-02-21T07:12:44;7.35;;;2.78;;
77226;SDS011;66234;47.642;19.144;2024-02-21T07:15:47;6.80;;;2.45;;
77226;SDS011;66234;47.642;19.144;2024-02-21T07:18:50;6.70;;;2.17;;
77226;SDS011;66234;47.642;19.144;2024-02-21T07:21:53;8.07;;;2.17;;
77226;SDS011;66234;47.642;19.144;2024-02-21T07:24:55;5.53;;;2.50;;
77226;SDS011;66234;47.642;19.144;2024-02-21T07:27:58;9.35;;;2.50;;
77226;SDS011;66234;47.642;19.144;2024-02-21T07:31:01;6.75;;;2.55;;
77226;SDS011;66234;47.642;19.144;2024-02-21T07:34:03;8.73;;;2.90;;
77226;SDS011;66234;47.642;19.144;2024-02-21T07:37:06;10.33;;;3.33;;
77226;SDS011;66234;47.642;19.144;2024-02-21T07:40:12;6.13;;;2.70;;
77226;SDS011;66234;47.642;19.144;2024-02-21T07:43:16;8.27;;;2.85;;
77226;SDS011;66234;47.642;19.144;2024-02-21T07:46:19;8.20;;;3.13;;
77226;SDS011;66234;47.642;19.144;2024-02-21T07:49:22;8.70;;;3.15;;
77226;SDS011;66234;47.642;19.144;2024-02-21T07:52:24;7.70;;;2.73;;
77226;SDS011;66234;47.642;19.144;2024-02-21T07:55:27;6.80;;;2.80;;
77226;SDS011;66234;47.642;19.144;2024-02-21T07:58:30;5.82;;;2.92;;
77226;SDS011;66234;47.642;19.144;2024-02-21T08:01:33;7.55;;;2.97;;
77226;SDS011;66234;47.642;19.144;2024-02-21T08:04:36;6.75;;;3.53;;
77226;SDS011;66234;47.642;19.144;2024-02-21T08:07:39;10.00;;;3.50;;
77226;SDS011;66234;47.642;19.144;2024-02-21T08:10:42;5.33;;;2.93;;
77226;SDS011;66234;47.642;19.144;2024-02-21T08:13:45;10.65;;;4.20;;
77226;SDS011;66234;47.642;19.144;2024-02-21T08:16:48;7.95;;;3.10;;
77226;SDS011;66234;47.642;19.144;2024-02-21T08:19:50;6.90;;;2.72;;
77226;SDS011;66234;47.642;19.144;2024-02-21T08:22:53;4.40;;;2.33;;
77226;SDS011;66234;47.642;19.144;2024-02-21T08:25:56;7.30;;;2.87;;
77226;SDS011;66234;47.642;19.144;2024-02-21T08:28:59;8.75;;;2.65;;
77226;SDS011;66234;47.642;19.144;2024-02-21T08:32:03;8.38;;;2.53;;
77226;SDS011;66234;47.642;19.144;2024-02-21T08:35:08;5.82;;;2.47;;
77226;SDS011;66234;47.642;19.144;2024-02-21T08:38:12;7.20;;;2.53;;
77226;SDS011;66234;47.642;19.144;2024-02-21T08:41:15;4.77;;;2.20;;
77226;SDS011;66234;47.642;19.144;2024-02-21T08:44:18;6.78;;;2.53;;
77226;SDS011;66234;47.642;19.144;2024-02-21T08:47:21;4.78;;;1.75;;
77226;SDS011;66234;47.642;19.144;2024-02-21T08:50:24;4.80;;;2.13;;
77226;SDS011;66234;47.642;19.144;2024-02-21T08:53:30;5.63;;;2.40;;
77226;SDS011;66234;47.642;19.144;2024-02-21T08:56:33;6.47;;;2.20;;
77226;SDS011;66234;47.642;19.144;2024-02-21T08:59:37;4.78;;;2.38;;
77226;SDS011;66234;47.642;19.144;2024-02-21T09:02:41;8.75;;;2.42;;
77226;SDS011;66234;47.642;19.144;2024-02-21T09:05:47;5.53;;;2.33;;
77226;SDS011;66234;47.642;19.144;2024-02-21T09:08:50;7.07;;;2.10;;
77226;SDS011;66234;47.642;19.144;2024-02-21T09:11:52;7.73;;;2.00;;
77226;SDS011;66234;47.642;19.144;2024-02-21T09:14:55;6.18;;;2.08;;
77226;SDS011;66234;47.642;19.144;2024-02-21T09:17:57;5.35;;;1.98;;
77226;SDS011;66234;47.642;19.144;2024-02-21T09:21:00;6.90;;;2.13;;
77226;SDS011;66234;47.642;19.144;2024-02-21T09:24:03;4.47;;;2.00;;
77226;SDS011;66234;47.642;19.144;2024-02-21T09:27:07;3.57;;;1.60;;
77226;SDS011;66234;47.642;19.144;2024-02-21T09:30:12;6.97;;;1.50;;
77226;SDS011;66234;47.642;19.144;2024-02-21T09:33:15;7.30;;;1.65;;
77226;SDS011;66234;47.642;19.144;2024-02-21T09:36:33;4.45;;;1.25;;
77226;SDS011;66234;47.642;19.144;2024-02-21T09:39:36;5.87;;;1.40;;
77226;SDS011;66234;47.642;19.144;2024-02-21T09:42:39;3.13;;;1.13;;
77226;SDS011;66234;47.642;19.144;2024-02-21T09:45:44;2.85;;;1.40;;
77226;SDS011;66234;47.642;19.144;2024-02-21T09:52:30;7.00;;;1.42;;
77226;SDS011;66234;47.642;19.144;2024-02-21T09:55:35;6.07;;;1.50;;
77226;SDS011;66234;47.642;19.144;2024-02-21T09:58:38;4.30;;;1.43;;
77226;SDS011;66234;47.642;19.144;2024-02-21T10:01:41;4.13;;;1.25;;
77226;SDS011;66234;47.642;19.144;2024-02-21T10:04:45;6.60;;;1.40;;
77226;SDS011;66234;47.642;19.144;2024-02-21T10:07:48;4.15;;;1.33;;
77226;SDS011;66234;47.642;19.144;2024-02-21T10:10:52;4.53;;;1.60;;
77226;SDS011;66234;47.642;19.144;2024-02-21T10:14:07;3.87;;;1.53;;
77226;SDS011;66234;47.642;19.144;2024-02-21T10:17:17;3.75;;;1.35;;
77226;SDS011;66234;47.642;19.144;2024-02-21T10:20:24;4.18;;;1.30;;
77226;SDS011;66234;47.642;19.144;2024-02-21T10:23:28;3.80;;;1.77;;
77226;SDS011;66234;47.642;19.144;2024-02-21T10:26:31;7.63;;;1.50;;
77226;SDS011;66234;47.642;19.144;2024-02-21T10:29:35;4.33;;;1.00;;
77226;SDS011;66234;47.642;19.144;2024-02-21T10:32:37;3.92;;;1.50;;
77226;SDS011;66234;47.642;19.144;2024-02-21T10:35:52;6.82;;;1.90;;
77226;SDS011;66234;47.642;19.144;2024-02-21T10:38:56;5.82;;;1.48;;
77226;SDS011;66234;47.642;19.144;2024-02-21T10:41:59;3.00;;;1.63;;
77226;SDS011;66234;47.642;19.144;2024-02-21T10:45:06;3.77;;;1.50;;
77226;SDS011;66234;47.642;19.144;2024-02-21T10:48:14;4.45;;;1.40;;
77226;SDS011;66234;47.642;19.144;2024-02-21T10:51:18;6.60;;;1.73;;
77226;SDS011;66234;47.642;19.144;2024-02-21T10:54:26;3.90;;;1.65;;
77226;SDS011;66234;47.642;19.144;2024-02-21T10:57:34;5.33;;;1.33;;
77226;SDS011;66234;47.642;19.144;2024-02-21T11:00:39;2.90;;;1.30;;
77226;SDS011;66234;47.642;19.144;2024-02-21T11:03:43;4.30;;;1.40;;
77226;SDS011;66234;47.642;19.144;2024-02-21T11:06:47;3.67;;;1.17;;
77226;SDS011;66234;47.642;19.144;2024-02-21T11:09:52;2.70;;;1.10;;
77226;SDS011;66234;47.642;19.144;2024-02-21T11:13:07;5.00;;;1.30;;
77226;SDS011;66234;47.642;19.144;2024-02-21T11:16:11;6.87;;;1.87;;
77226;SDS011;66234;47.642;19.144;2024-02-21T11:19:27;6.88;;;1.38;;
77226;SDS011;66234;47.642;19.144;2024-02-21T11:22:40;4.90;;;1.63;;
77226;SDS011;66234;47.642;19.144;2024-02-21T11:25:44;5.00;;;2.13;;
77226;SDS011;66234;47.642;19.144;2024-02-21T11:29:00;4.70;;;1.60;;
77226;SDS011;66234;47.642;19.144;2024-02-21T11:32:05;4.57;;;1.50;;
77226;SDS011;66234;47.642;19.144;2024-02-21T11:35:08;5.07;;;1.60;;
77226;SDS011;66234;47.642;19.144;2024-02-21T11:38:11;4.50;;;1.50;;
77226;SDS011;66234;47.642;19.144;2024-02-21T11:41:19;3.40;;;1.75;;
77226;SDS011;66234;47.642;19.144;2024-02-21T11:44:25;4.37;;;1.33;;
77226;SDS011;66234;47.642;19.144;2024-02-21T11:47:28;4.50;;;1.43;;
77226;SDS011;66234;47.642;19.144;2024-02-21T11:50:34;5.55;;;1.75;;
77226;SDS011;66234;47.642;19.144;2024-02-21T11:53:39;8.02;;;1.50;;
77226;SDS011;66234;47.642;19.144;2024-02-21T11:56:56;4.72;;;1.30;;
77226;SDS011;66234;47.642;19.144;2024-02-21T11:59:58;2.63;;;1.33;;
77226;SDS011;66234;47.642;19.144;2024-02-21T12:03:12;5.03;;;1.50;;
77226;SDS011;66234;47.642;19.144;2024-02-21T12:06:28;6.32;;;1.80;;
77226;SDS011;66234;47.642;19.144;2024-02-21T12:09:33;4.75;;;1.58;;
77226;SDS011;66234;47.642;19.144;2024-02-21T12:12:38;4.43;;;1.65;;
77226;SDS011;66234;47.642;19.144;2024-02-21T12:15:47;2.83;;;1.60;;
77226;SDS011;66234;47.642;19.144;2024-02-21T12:18:52;3.27;;;1.23;;
77226;SDS011;66234;47.642;19.144;2024-02-21T12:21:56;3.15;;;1.17;;
77226;SDS011;66234;47.642;19.144;2024-02-21T12:25:02;5.20;;;1.77;;
77226;SDS011;66234;47.642;19.144;2024-02-21T12:28:05;5.93;;;1.50;;
77226;SDS011;66234;47.642;19.144;2024-02-21T12:31:08;9.93;;;2.10;;
77226;SDS011;66234;47.642;19.144;2024-02-21T12:34:11;5.23;;;1.63;;
77226;SDS011;66234;47.642;19.144;2024-02-21T12:37:13;3.72;;;1.30;;
77226;SDS011;66234;47.642;19.144;2024-02-21T12:40:18;3.92;;;1.85;;
77226;SDS011;66234;47.642;19.144;2024-02-21T12:43:20;3.15;;;1.38;;
77226;SDS011;66234;47.642;19.144;2024-02-21T12:46:24;4.73;;;1.47;;
77226;SDS011;66234;47.642;19.144;2024-02-21T12:49:27;7.73;;;1.60;;
77226;SDS011;66234;47.642;19.144;2024-02-21T12:52:32;2.60;;;1.10;;
77226;SDS011;66234;47.642;19.144;2024-02-21T12:55:38;4.78;;;1.70;;
77226;SDS011;66234;47.642;19.144;2024-02-21T12:58:40;9.82;;;2.22;;
77226;SDS011;66234;47.642;19.144;2024-02-21T13:01:43;5.80;;;1.87;;
77226;SDS011;66234;47.642;19.144;2024-02-21T13:04:46;7.17;;;1.70;;
77226;SDS011;66234;47.642;19.144;2024-02-21T13:07:49;6.35;;;1.45;;
77226;SDS011;66234;47.642;19.144;2024-02-21T13:10:52;6.07;;;1.55;;
77226;SDS011;66234;47.642;19.144;2024-02-21T13:13:57;4.10;;;1.17;;
77226;SDS011;66234;47.642;19.144;2024-02-21T13:17:00;3.93;;;1.10;;
77226;SDS011;66234;47.642;19.144;2024-02-21T13:20:02;3.40;;;0.60;;
77226;SDS011;66234;47.642;19.144;2024-02-21T13:23:08;4.47;;;1.20;;
77226;SDS011;66234;47.642;19.144;2024-02-21T13:26:11;2.45;;;0.85;;
77226;SDS011;66234;47.642;19.144;2024-02-21T13:29:15;3.80;;;1.60;;
77226;SDS011;66234;47.642;19.144;2024-02-21T13:32:17;2.87;;;0.73;;
77226;SDS011;66234;47.642;19.144;2024-02-21T13:35:20;4.87;;;1.60;;
77226;SDS011;66234;47.642;19.144;2024-02-21T13:38:23;6.00;;;1.60;;
77226;SDS011;66234;47.642;19.144;2024-02-21T13:41:26;3.80;;;1.10;;
77226;SDS011;66234;47.642;19.144;2024-02-21T13:44:29;1.85;;;1.10;;
77226;SDS011;66234;47.642;19.144;2024-02-21T13:47:34;4.53;;;1.53;;
77226;SDS011;66234;47.642;19.144;2024-02-21T13:50:39;3.27;;;1.23;;
77226;SDS011;66234;47.642;19.144;2024-02-21T13:53:45;2.70;;;1.27;;
77226;SDS011;66234;47.642;19.144;2024-02-21T13:56:48;4.47;;;1.20;;
77226;SDS011;66234;47.642;19.144;2024-02-21T13:59:50;3.55;;;1.25;;
77226;SDS011;66234;47.642;19.144;2024-02-21T14:02:53;3.80;;;1.20;;
77226;SDS011;66234;47.642;19.144;2024-02-21T14:05:56;3.07;;;1.60;;
77226;SDS011;66234;47.642;19.144;2024-02-21T14:08:59;3.20;;;1.58;;
77226;SDS011;66234;47.642;19.144;2024-02-21T14:12:02;7.57;;;1.48;;
77226;SDS011;66234;47.642;19.144;2024-02-21T14:15:10;5.65;;;1.15;;
77226;SDS011;66234;47.642;19.144;2024-02-21T14:18:13;3.57;;;1.30;;
77226;SDS011;66234;47.642;19.144;2024-02-21T14:21:16;4.67;;;1.57;;
77226;SDS011;66234;47.642;19.144;2024-02-21T14:24:19;3.47;;;1.80;;
77226;SDS011;66234;47.642;19.144;2024-02-21T14:27:21;4.88;;;1.60;;
77226;SDS011;66234;47.642;19.144;2024-02-21T14:30:24;5.95;;;2.35;;
77226;SDS011;66234;47.642;19.144;2024-02-21T14:33:27;7.07;;;1.97;;
77226;SDS011;66234;47.642;19.144;2024-02-21T14:36:30;5.20;;;1.83;;
77226;SDS011;66234;47.642;19.144;2024-02-21T14:39:33;2.75;;;1.55;;
77226;SDS011;66234;47.642;19.144;2024-02-21T14:42:37;3.83;;;1.13;;
77226;SDS011;66234;47.642;19.144;2024-02-21T14:45:40;5.97;;;2.03;;
77226;SDS011;66234;47.642;19.144;2024-02-21T14:48:42;6.00;;;1.87;;
77226;SDS011;66234;47.642;19.144;2024-02-21T14:51:45;7.40;;;1.70;;
77226;SDS011;66234;47.642;19.144;2024-02-21T14:54:48;5.47;;;1.60;;
77226;SDS011;66234;47.642;19.144;2024-02-21T14:57:53;4.22;;;1.63;;
77226;SDS011;66234;47.642;19.144;2024-02-21T15:00:56;3.92;;;1.58;;
77226;SDS011;66234;47.642;19.144;2024-02-21T15:03:58;6.30;;;1.97;;
77226;SDS011;66234;47.642;19.144;2024-02-21T15:07:01;4.47;;;1.80;;
77226;SDS011;66234;47.642;19.144;2024-02-21T15:10:04;8.00;;;1.77;;
77226;SDS011;66234;47.642;19.144;2024-02-21T15:13:08;8.57;;;1.80;;
77226;SDS011;66234;47.642;19.144;2024-02-21T15:16:11;4.57;;;1.45;;
77226;SDS011;66234;47.642;19.144;2024-02-21T15:19:14;5.33;;;1.40;;
77226;SDS011;66234;47.642;19.144;2024-02-21T15:22:17;4.60;;;1.53;;
77226;SDS011;66234;47.642;19.144;2024-02-21T15:25:22;5.38;;;1.40;;
77226;SDS011;66234;47.642;19.144;2024-02-21T15:28:24;3.65;;;1.48;;
77226;SDS011;66234;47.642;19.144;2024-02-21T15:31:27;2.75;;;1.38;;
77226;SDS011;66234;47.642;19.144;2024-02-21T15:34:30;4.87;;;1.20;;
77226;SDS011;66234;47.642;19.144;2024-02-21T15:37:34;9.17;;;1.53;;
77226;SDS011;66234;47.642;19.144;2024-02-21T15:40:36;3.88;;;1.52;;
77226;SDS011;66234;47.642;19.144;2024-02-21T15:43:39;9.05;;;1.20;;
77226;SDS011;66234;47.642;19.144;2024-02-21T15:46:42;4.63;;;0.95;;
77226;SDS011;66234;47.642;19.144;2024-02-21T15:49:44;9.70;;;1.57;;
77226;SDS011;66234;47.642;19.144;2024-02-21T15:52:47;3.70;;;1.30;;
77226;SDS011;66234;47.642;19.144;2024-02-21T15:55:50;4.57;;;1.50;;
77226;SDS011;66234;47.642;19.144;2024-02-21T15:58:52;7.38;;;2.92;;
77226;SDS011;66234;47.642;19.144;2024-02-21T16:01:57;7.15;;;2.35;;
77226;SDS011;66234;47.642;19.144;2024-02-21T16:05:03;7.67;;;2.17;;
77226;SDS011;66234;47.642;19.144;2024-02-21T16:08:12;4.77;;;2.20;;
77226;SDS011;66234;47.642;19.144;2024-02-21T16:11:15;8.02;;;2.60;;
77226;SDS011;66234;47.642;19.144;2024-02-21T16:14:20;6.95;;;2.05;;
77226;SDS011;66234;47.642;19.144;2024-02-21T16:17:26;4.93;;;2.08;;
77226;SDS011;66234;47.642;19.144;2024-02-21T16:20:29;4.10;;;1.90;;
77226;SDS011;66234;47.642;19.144;2024-02-21T16:23:31;6.93;;;2.13;;
77226;SDS011;66234;47.642;19.144;2024-02-21T16:26:35;10.10;;;2.60;;
77226;SDS011;66234;47.642;19.144;2024-02-21T16:29:39;5.22;;;2.55;;
77226;SDS011;66234;47.642;19.144;2024-02-21T16:32:42;7.05;;;2.30;;
77226;SDS011;66234;47.642;19.144;2024-02-21T16:35:45;13.83;;;3.20;;
77226;SDS011;66234;47.642;19.144;2024-02-21T16:38:49;8.77;;;3.30;;
77226;SDS011;66234;47.642;19.144;2024-02-21T16:41:55;13.20;;;4.45;;
77226;SDS011;66234;47.642;19.144;2024-02-21T16:45:02;8.30;;;3.78;;
77226;SDS011;66234;47.642;19.144;2024-02-21T16:48:07;8.43;;;5.25;;
77226;SDS011;66234;47.642;19.144;2024-02-21T16:51:10;10.93;;;4.87;;
77226;SDS011;66234;47.642;19.144;2024-02-21T16:54:23;14.67;;;6.07;;
77226;SDS011;66234;47.642;19.144;2024-02-21T16:57:27;21.02;;;7.10;;
77226;SDS011;66234;47.642;19.144;2024-02-21T17:00:30;19.08;;;8.10;;
77226;SDS011;66234;47.642;19.144;2024-02-21T17:03:33;18.33;;;7.22;;
77226;SDS011;66234;47.642;19.144;2024-02-21T17:06:36;23.03;;;7.70;;
77226;SDS011;66234;47.642;19.144;2024-02-21T17:09:39;23.70;;;8.73;;
77226;SDS011;66234;47.642;19.144;2024-02-21T17:12:42;24.38;;;10.95;;
77226;SDS011;66234;47.642;19.144;2024-02-21T17:15:44;22.60;;;9.68;;
77226;SDS011;66234;47.642;19.144;2024-02-21T17:18:48;37.03;;;14.60;;
77226;SDS011;66234;47.642;19.144;2024-02-21T17:21:50;29.53;;;12.40;;
77226;SDS011;66234;47.642;19.144;2024-02-21T17:24:53;38.47;;;13.20;;
77226;SDS011;66234;47.642;19.144;2024-02-21T17:27:55;26.83;;;11.43;;
77226;SDS011;66234;47.642;19.144;2024-02-21T17:30:58;29.05;;;10.23;;
77226;SDS011;66234;47.642;19.144;2024-02-21T17:34:01;19.77;;;8.95;;
77226;SDS011;66234;47.642;19.144;2024-02-21T17:37:04;24.23;;;10.13;;
77226;SDS011;66234;47.642;19.144;2024-02-21T17:40:07;17.30;;;9.40;;
77226;SDS011;66234;47.642;19.144;2024-02-21T17:43:11;30.35;;;12.73;;
77226;SDS011;66234;47.642;19.144;2024-02-21T17:46:15;29.65;;;12.68;;
77226;SDS011;66234;47.642;19.144;2024-02-21T17:49:18;32.08;;;12.68;;
77226;SDS011;66234;47.642;19.144;2024-02-21T17:52:26;26.23;;;12.30;;
77226;SDS011;66234;47.642;19.144;2024-02-21T17:55:31;33.87;;;13.67;;
77226;SDS011;66234;47.642;19.144;2024-02-21T17:58:34;47.47;;;20.67;;
77226;SDS011;66234;47.642;19.144;2024-02-21T18:01:37;48.05;;;19.50;;
77226;SDS011;66234;47.642;19.144;2024-02-21T18:04:40;46.28;;;17.65;;
77226;SDS011;66234;47.642;19.144;2024-02-21T18:07:43;39.27;;;17.20;;
77226;SDS011;66234;47.642;19.144;2024-02-21T18:10:46;39.40;;;17.90;;
77226;SDS011;66234;47.642;19.144;2024-02-21T18:13:49;35.03;;;15.65;;
77226;SDS011;66234;47.642;19.144;2024-02-21T18:16:57;29.95;;;15.45;;